sensor_id;sensor_type;location;lat;lon;timestamp;temperature;humidity
37938;DHT22;23763;48.130;11.602;2023-05-13T00:01:50;10.90;99.90
37938;DHT22;23763;48.130;11.602;2023-05-13T00:04:15;10.90;99.90
37938;DHT22;23763;48.130;11.602;2023-05-13T00:06:41;11.00;99.90
37938;DHT22;23763;48.130;11.602;2023-05-13T00:09:07;11.00;99.90
37938;DHT22;23763;48.130;11.602;2023-05-13T00:11:33;10.90;99.90
37938;DHT22;23763;48.130;11.602;2023-05-13T00:13:59;10.90;99.90
37938;DHT22;23763;48.130;11.602;2023-05-13T00:16:24;10.90;99.90
37938;DHT22;23763;48.130;11.602;2023-05-13T00:18:52;10.80;99.90
37938;DHT22;23763;48.130;11.602;2023-05-13T00:21:18;10.80;99.90
37938;DHT22;23763;48.130;11.602;2023-05-13T00:23:43;10.80;99.90
37938;DHT22;23763;48.130;11.602;2023-05-13T00:26:09;10.70;99.90
37938;DHT22;23763;48.130;11.602;2023-05-13T00:28:35;10.70;99.90
37938;DHT22;23763;48.130;11.602;2023-05-13T00:31:00;10.70;99.90
37938;DHT22;23763;48.130;11.602;2023-05-13T00:33:26;10.80;99.90
37938;DHT22;23763;48.130;11.602;2023-05-13T00:35:51;10.80;99.90
37938;DHT22;23763;48.130;11.602;2023-05-13T00:38:17;10.70;99.90
37938;DHT22;23763;48.130;11.602;2023-05-13T00:40:43;10.80;99.90
37938;DHT22;23763;48.130;11.602;2023-05-13T00:43:09;10.80;99.90
37938;DHT22;23763;48.130;11.602;2023-05-13T00:45:38;10.80;99.90
37938;DHT22;23763;48.130;11.602;2023-05-13T00:48:05;10.80;99.90
37938;DHT22;23763;48.130;11.602;2023-05-13T00:50:31;10.80;99.90
37938;DHT22;23763;48.130;11.602;2023-05-13T00:52:57;10.70;99.90
37938;DHT22;23763;48.130;11.602;2023-05-13T00:55:24;10.60;99.90
37938;DHT22;23763;48.130;11.602;2023-05-13T00:57:49;10.60;99.90
37938;DHT22;23763;48.130;11.602;2023-05-13T01:00:15;10.70;99.90
37938;DHT22;23763;48.130;11.602;2023-05-13T01:02:56;10.70;99.90
37938;DHT22;23763;48.130;11.602;2023-05-13T01:08:34;10.70;99.90
37938;DHT22;23763;48.130;11.602;2023-05-13T01:11:22;10.70;99.90
37938;DHT22;23763;48.130;11.602;2023-05-13T01:13:55;10.60;99.90
37938;DHT22;23763;48.130;11.602;2023-05-13T01:16:29;10.60;99.90
37938;DHT22;23763;48.130;11.602;2023-05-13T01:19:03;10.60;99.90
37938;DHT22;23763;48.130;11.602;2023-05-13T01:21:34;10.50;99.90
37938;DHT22;23763;48.130;11.602;2023-05-13T01:24:00;10.50;99.90
37938;DHT22;23763;48.130;11.602;2023-05-13T01:26:26;10.60;99.90
37938;DHT22;23763;48.130;11.602;2023-05-13T01:28:52;10.50;99.90
37938;DHT22;23763;48.130;11.602;2023-05-13T01:31:19;10.60;99.90
37938;DHT22;23763;48.130;11.602;2023-05-13T01:33:47;10.60;99.90
37938;DHT22;23763;48.130;11.602;2023-05-13T01:36:13;10.60;99.90
37938;DHT22;23763;48.130;11.602;2023-05-13T01:38:39;10.50;99.90
37938;DHT22;23763;48.130;11.602;2023-05-13T01:41:06;10.50;99.90
37938;DHT22;23763;48.130;11.602;2023-05-13T01:43:32;10.50;99.90
37938;DHT22;23763;48.130;11.602;2023-05-13T01:45:57;10.40;99.90
37938;DHT22;23763;48.130;11.602;2023-05-13T01:48:25;10.50;99.90
37938;DHT22;23763;48.130;11.602;2023-05-13T01:50:51;10.50;99.90
37938;DHT22;23763;48.130;11.602;2023-05-13T01:53:17;10.50;99.90
37938;DHT22;23763;48.130;11.602;2023-05-13T01:55:43;10.50;99.90
37938;DHT22;23763;48.130;11.602;2023-05-13T01:58:09;10.50;99.90
37938;DHT22;23763;48.130;11.602;2023-05-13T02:00:34;10.40;99.90
37938;DHT22;23763;48.130;11.602;2023-05-13T02:03:00;10.50;99.90
37938;DHT22;23763;48.130;11.602;2023-05-13T02:05:26;10.40;99.90
37938;DHT22;23763;48.130;11.602;2023-05-13T02:07:51;10.50;99.90
37938;DHT22;23763;48.130;11.602;2023-05-13T02:10:17;10.50;99.90
37938;DHT22;23763;48.130;11.602;2023-05-13T02:12:42;10.50;99.90
37938;DHT22;23763;48.130;11.602;2023-05-13T02:15:09;10.40;99.90
37938;DHT22;23763;48.130;11.602;2023-05-13T02:17:35;10.40;99.90
37938;DHT22;23763;48.130;11.602;2023-05-13T02:20:00;10.30;99.90
37938;DHT22;23763;48.130;11.602;2023-05-13T02:22:26;10.30;99.90
37938;DHT22;23763;48.130;11.602;2023-05-13T02:24:52;10.30;99.90
37938;DHT22;23763;48.130;11.602;2023-05-13T02:27:17;10.40;99.90
37938;DHT22;23763;48.130;11.602;2023-05-13T02:29:43;10.40;99.90
37938;DHT22;23763;48.130;11.602;2023-05-13T02:32:09;10.30;99.90
37938;DHT22;23763;48.130;11.602;2023-05-13T02:34:34;10.40;99.90
37938;DHT22;23763;48.130;11.602;2023-05-13T02:37:02;10.40;99.90
37938;DHT22;23763;48.130;11.602;2023-05-13T02:39:28;10.40;99.90
37938;DHT22;23763;48.130;11.602;2023-05-13T02:41:53;10.50;99.90
37938;DHT22;23763;48.130;11.602;2023-05-13T02:44:19;10.40;99.90
37938;DHT22;23763;48.130;11.602;2023-05-13T02:46:44;10.40;99.90
37938;DHT22;23763;48.130;11.602;2023-05-13T02:49:10;10.40;99.90
37938;DHT22;23763;48.130;11.602;2023-05-13T02:51:36;10.40;99.90
37938;DHT22;23763;48.130;11.602;2023-05-13T02:54:01;10.40;99.90
37938;DHT22;23763;48.130;11.602;2023-05-13T02:56:27;10.40;99.90
37938;DHT22;23763;48.130;11.602;2023-05-13T02:58:53;10.40;99.90
37938;DHT22;23763;48.130;11.602;2023-05-13T03:01:19;10.30;99.90
37938;DHT22;23763;48.130;11.602;2023-05-13T03:03:45;10.30;99.90
37938;DHT22;23763;48.130;11.602;2023-05-13T03:06:10;10.30;99.90
37938;DHT22;23763;48.130;11.602;2023-05-13T03:08:36;10.30;99.90
37938;DHT22;23763;48.130;11.602;2023-05-13T03:11:02;10.20;99.90
37938;DHT22;23763;48.130;11.602;2023-05-13T03:13:29;10.20;99.90
37938;DHT22;23763;48.130;11.602;2023-05-13T03:15:54;10.30;99.90
37938;DHT22;23763;48.130;11.602;2023-05-13T03:18:20;10.20;99.90
37938;DHT22;23763;48.130;11.602;2023-05-13T03:20:45;10.20;99.90
37938;DHT22;23763;48.130;11.602;2023-05-13T03:23:11;10.30;99.90
37938;DHT22;23763;48.130;11.602;2023-05-13T03:25:37;10.40;99.90
37938;DHT22;23763;48.130;11.602;2023-05-13T03:28:03;10.40;99.90
37938;DHT22;23763;48.130;11.602;2023-05-13T03:30:28;10.40;99.90
37938;DHT22;23763;48.130;11.602;2023-05-13T03:32:54;10.40;99.90
37938;DHT22;23763;48.130;11.602;2023-05-13T03:35:21;10.40;99.90
37938;DHT22;23763;48.130;11.602;2023-05-13T03:37:46;10.40;99.90
37938;DHT22;23763;48.130;11.602;2023-05-13T03:40:12;10.50;99.90
37938;DHT22;23763;48.130;11.602;2023-05-13T03:42:38;10.50;99.90
37938;DHT22;23763;48.130;11.602;2023-05-13T03:45:04;10.60;99.90
37938;DHT22;23763;48.130;11.602;2023-05-13T03:47:30;10.50;99.90
37938;DHT22;23763;48.130;11.602;2023-05-13T03:49:55;10.50;99.90
37938;DHT22;23763;48.130;11.602;2023-05-13T03:52:21;10.40;99.90
37938;DHT22;23763;48.130;11.602;2023-05-13T03:54:46;10.50;99.90
37938;DHT22;23763;48.130;11.602;2023-05-13T03:57:13;10.40;99.90
37938;DHT22;23763;48.130;11.602;2023-05-13T03:59:38;10.40;99.90
37938;DHT22;23763;48.130;11.602;2023-05-13T04:02:04;10.40;99.90
37938;DHT22;23763;48.130;11.602;2023-05-13T04:04:30;10.40;99.90
37938;DHT22;23763;48.130;11.602;2023-05-13T04:06:56;10.30;99.90
37938;DHT22;23763;48.130;11.602;2023-05-13T04:09:21;10.30;99.90
37938;DHT22;23763;48.130;11.602;2023-05-13T04:11:47;10.30;99.90
37938;DHT22;23763;48.130;11.602;2023-05-13T04:14:13;10.20;99.90
37938;DHT22;23763;48.130;11.602;2023-05-13T04:16:38;10.20;99.90
37938;DHT22;23763;48.130;11.602;2023-05-13T04:19:04;10.20;99.90
37938;DHT22;23763;48.130;11.602;2023-05-13T04:21:30;10.20;99.90
37938;DHT22;23763;48.130;11.602;2023-05-13T04:23:55;10.20;99.90
37938;DHT22;23763;48.130;11.602;2023-05-13T04:26:21;10.20;99.90
37938;DHT22;23763;48.130;11.602;2023-05-13T04:28:47;10.20;99.90
37938;DHT22;23763;48.130;11.602;2023-05-13T04:31:12;10.20;99.90
37938;DHT22;23763;48.130;11.602;2023-05-13T04:33:38;10.20;99.90
37938;DHT22;23763;48.130;11.602;2023-05-13T04:36:04;10.20;99.90
37938;DHT22;23763;48.130;11.602;2023-05-13T04:38:30;10.20;99.90
37938;DHT22;23763;48.130;11.602;2023-05-13T04:40:55;10.20;99.90
37938;DHT22;23763;48.130;11.602;2023-05-13T04:43:21;10.10;99.90
37938;DHT22;23763;48.130;11.602;2023-05-13T04:45:47;10.10;99.90
37938;DHT22;23763;48.130;11.602;2023-05-13T04:48:14;10.20;99.90
37938;DHT22;23763;48.130;11.602;2023-05-13T04:50:44;10.20;99.90
37938;DHT22;23763;48.130;11.602;2023-05-13T04:53:10;10.20;99.90
37938;DHT22;23763;48.130;11.602;2023-05-13T04:55:35;10.30;99.90
37938;DHT22;23763;48.130;11.602;2023-05-13T04:58:01;10.20;99.90
37938;DHT22;23763;48.130;11.602;2023-05-13T05:00:26;10.20;99.90
37938;DHT22;23763;48.130;11.602;2023-05-13T05:02:52;10.10;99.90
37938;DHT22;23763;48.130;11.602;2023-05-13T05:05:17;10.10;99.90
37938;DHT22;23763;48.130;11.602;2023-05-13T05:07:43;10.20;99.90
37938;DHT22;23763;48.130;11.602;2023-05-13T05:10:09;10.10;99.90
37938;DHT22;23763;48.130;11.602;2023-05-13T05:12:35;10.10;99.90
37938;DHT22;23763;48.130;11.602;2023-05-13T05:15:03;10.20;99.90
37938;DHT22;23763;48.130;11.602;2023-05-13T05:17:29;10.10;99.90
37938;DHT22;23763;48.130;11.602;2023-05-13T05:19:57;10.00;99.90
37938;DHT22;23763;48.130;11.602;2023-05-13T05:22:23;10.10;99.90
37938;DHT22;23763;48.130;11.602;2023-05-13T05:24:49;10.00;99.90
37938;DHT22;23763;48.130;11.602;2023-05-13T05:27:15;10.00;99.90
37938;DHT22;23763;48.130;11.602;2023-05-13T05:29:40;10.10;99.90
37938;DHT22;23763;48.130;11.602;2023-05-13T05:32:06;10.00;99.90
37938;DHT22;23763;48.130;11.602;2023-05-13T05:34:32;10.00;99.90
37938;DHT22;23763;48.130;11.602;2023-05-13T05:36:57;10.10;99.90
37938;DHT22;23763;48.130;11.602;2023-05-13T05:39:23;10.10;99.90
37938;DHT22;23763;48.130;11.602;2023-05-13T05:41:49;10.20;99.90
37938;DHT22;23763;48.130;11.602;2023-05-13T05:44:14;10.10;99.90
37938;DHT22;23763;48.130;11.602;2023-05-13T05:46:40;10.20;99.90
37938;DHT22;23763;48.130;11.602;2023-05-13T05:49:05;10.20;99.90
37938;DHT22;23763;48.130;11.602;2023-05-13T05:51:32;10.20;99.90
37938;DHT22;23763;48.130;11.602;2023-05-13T05:53:58;10.30;99.90
37938;DHT22;23763;48.130;11.602;2023-05-13T05:56:23;10.20;99.90
37938;DHT22;23763;48.130;11.602;2023-05-13T05:58:49;10.20;99.90
37938;DHT22;23763;48.130;11.602;2023-05-13T06:01:15;10.20;99.90
37938;DHT22;23763;48.130;11.602;2023-05-13T06:03:40;10.20;99.90
37938;DHT22;23763;48.130;11.602;2023-05-13T06:06:06;10.20;99.90
37938;DHT22;23763;48.130;11.602;2023-05-13T06:08:32;10.30;99.90
37938;DHT22;23763;48.130;11.602;2023-05-13T06:10:58;10.30;99.90
37938;DHT22;23763;48.130;11.602;2023-05-13T06:13:24;10.30;99.90
37938;DHT22;23763;48.130;11.602;2023-05-13T06:15:50;10.30;99.90
37938;DHT22;23763;48.130;11.602;2023-05-13T06:18:16;10.30;99.90
37938;DHT22;23763;48.130;11.602;2023-05-13T06:20:41;10.30;99.90
37938;DHT22;23763;48.130;11.602;2023-05-13T06:23:08;10.40;99.90
37938;DHT22;23763;48.130;11.602;2023-05-13T06:25:34;10.40;99.90
37938;DHT22;23763;48.130;11.602;2023-05-13T06:28:00;10.50;99.90
37938;DHT22;23763;48.130;11.602;2023-05-13T06:30:25;10.50;99.90
37938;DHT22;23763;48.130;11.602;2023-05-13T06:32:51;10.40;99.90
37938;DHT22;23763;48.130;11.602;2023-05-13T06:35:19;10.50;99.90
37938;DHT22;23763;48.130;11.602;2023-05-13T06:37:45;10.60;99.90
37938;DHT22;23763;48.130;11.602;2023-05-13T06:40:11;10.50;99.90
37938;DHT22;23763;48.130;11.602;2023-05-13T06:42:36;10.60;99.90
37938;DHT22;23763;48.130;11.602;2023-05-13T06:45:06;10.80;99.90
37938;DHT22;23763;48.130;11.602;2023-05-13T06:47:32;10.90;99.90
37938;DHT22;23763;48.130;11.602;2023-05-13T06:49:58;11.10;99.90
37938;DHT22;23763;48.130;11.602;2023-05-13T06:52:23;11.00;99.90
37938;DHT22;23763;48.130;11.602;2023-05-13T06:54:49;10.90;99.90
37938;DHT22;23763;48.130;11.602;2023-05-13T06:57:15;10.90;99.90
37938;DHT22;23763;48.130;11.602;2023-05-13T06:59:40;10.90;99.90
37938;DHT22;23763;48.130;11.602;2023-05-13T07:02:06;10.90;99.90
37938;DHT22;23763;48.130;11.602;2023-05-13T07:04:34;11.00;99.90
37938;DHT22;23763;48.130;11.602;2023-05-13T07:06:59;11.00;99.90
37938;DHT22;23763;48.130;11.602;2023-05-13T07:09:25;10.90;99.90
37938;DHT22;23763;48.130;11.602;2023-05-13T07:11:51;11.00;99.90
37938;DHT22;23763;48.130;11.602;2023-05-13T07:14:17;10.90;99.90
37938;DHT22;23763;48.130;11.602;2023-05-13T07:16:43;10.90;99.90
37938;DHT22;23763;48.130;11.602;2023-05-13T07:19:09;11.10;99.90
37938;DHT22;23763;48.130;11.602;2023-05-13T07:21:34;11.30;99.90
37938;DHT22;23763;48.130;11.602;2023-05-13T07:24:00;11.10;99.90
37938;DHT22;23763;48.130;11.602;2023-05-13T07:26:26;11.20;99.90
37938;DHT22;23763;48.130;11.602;2023-05-13T07:28:52;11.20;99.90
37938;DHT22;23763;48.130;11.602;2023-05-13T07:31:17;11.20;99.90
37938;DHT22;23763;48.130;11.602;2023-05-13T07:33:43;11.10;99.90
37938;DHT22;23763;48.130;11.602;2023-05-13T07:36:09;11.10;99.90
37938;DHT22;23763;48.130;11.602;2023-05-13T07:38:34;11.10;99.90
37938;DHT22;23763;48.130;11.602;2023-05-13T07:41:00;11.00;99.90
37938;DHT22;23763;48.130;11.602;2023-05-13T07:43:26;11.00;99.90
37938;DHT22;23763;48.130;11.602;2023-05-13T07:45:52;11.10;99.90
37938;DHT22;23763;48.130;11.602;2023-05-13T07:48:21;11.10;99.90
37938;DHT22;23763;48.130;11.602;2023-05-13T07:50:48;11.10;99.90
37938;DHT22;23763;48.130;11.602;2023-05-13T07:53:15;11.20;99.90
37938;DHT22;23763;48.130;11.602;2023-05-13T07:55:40;11.10;99.90
37938;DHT22;23763;48.130;11.602;2023-05-13T07:58:06;11.20;99.90
37938;DHT22;23763;48.130;11.602;2023-05-13T08:00:32;11.30;99.90
37938;DHT22;23763;48.130;11.602;2023-05-13T08:02:58;11.20;99.90
37938;DHT22;23763;48.130;11.602;2023-05-13T08:05:23;11.10;99.90
37938;DHT22;23763;48.130;11.602;2023-05-13T08:07:49;11.30;99.90
37938;DHT22;23763;48.130;11.602;2023-05-13T08:10:15;11.40;99.90
37938;DHT22;23763;48.130;11.602;2023-05-13T08:12:41;11.50;99.90
37938;DHT22;23763;48.130;11.602;2023-05-13T08:15:07;11.60;99.90
37938;DHT22;23763;48.130;11.602;2023-05-13T08:17:33;11.60;99.90
37938;DHT22;23763;48.130;11.602;2023-05-13T08:20:00;11.60;99.90
37938;DHT22;23763;48.130;11.602;2023-05-13T08:22:25;11.50;99.90
37938;DHT22;23763;48.130;11.602;2023-05-13T08:24:52;11.40;99.90
37938;DHT22;23763;48.130;11.602;2023-05-13T08:27:18;11.30;99.90
37938;DHT22;23763;48.130;11.602;2023-05-13T08:29:43;11.10;99.90
37938;DHT22;23763;48.130;11.602;2023-05-13T08:32:10;10.90;99.90
37938;DHT22;23763;48.130;11.602;2023-05-13T08:34:36;10.70;99.90
37938;DHT22;23763;48.130;11.602;2023-05-13T08:37:02;10.80;99.90
37938;DHT22;23763;48.130;11.602;2023-05-13T08:39:27;10.80;99.90
37938;DHT22;23763;48.130;11.602;2023-05-13T08:41:55;10.80;99.90
37938;DHT22;23763;48.130;11.602;2023-05-13T08:44:24;10.80;99.90
37938;DHT22;23763;48.130;11.602;2023-05-13T08:47:03;10.90;99.90
37938;DHT22;23763;48.130;11.602;2023-05-13T08:49:33;11.00;99.90
37938;DHT22;23763;48.130;11.602;2023-05-13T08:51:59;11.00;99.90
37938;DHT22;23763;48.130;11.602;2023-05-13T08:54:25;11.10;99.90
37938;DHT22;23763;48.130;11.602;2023-05-13T08:56:52;11.20;99.90
37938;DHT22;23763;48.130;11.602;2023-05-13T08:59:17;11.20;99.90
37938;DHT22;23763;48.130;11.602;2023-05-13T09:01:44;11.20;99.90
37938;DHT22;23763;48.130;11.602;2023-05-13T09:04:10;11.40;99.90
37938;DHT22;23763;48.130;11.602;2023-05-13T09:06:36;11.40;99.90
37938;DHT22;23763;48.130;11.602;2023-05-13T09:09:01;11.50;99.90
37938;DHT22;23763;48.130;11.602;2023-05-13T09:11:27;11.50;99.90
37938;DHT22;23763;48.130;11.602;2023-05-13T09:13:57;11.60;99.90
37938;DHT22;23763;48.130;11.602;2023-05-13T09:16:23;11.70;99.90
37938;DHT22;23763;48.130;11.602;2023-05-13T09:18:58;11.70;99.90
37938;DHT22;23763;48.130;11.602;2023-05-13T09:21:29;11.80;99.90
37938;DHT22;23763;48.130;11.602;2023-05-13T09:26:32;11.90;99.90
37938;DHT22;23763;48.130;11.602;2023-05-13T09:29:17;12.00;99.90
37938;DHT22;23763;48.130;11.602;2023-05-13T09:31:55;11.80;99.90
37938;DHT22;23763;48.130;11.602;2023-05-13T09:34:29;12.00;99.90
37938;DHT22;23763;48.130;11.602;2023-05-13T09:37:04;12.20;99.90
37938;DHT22;23763;48.130;11.602;2023-05-13T09:39:32;12.20;99.90
37938;DHT22;23763;48.130;11.602;2023-05-13T09:41:59;12.30;99.90
37938;DHT22;23763;48.130;11.602;2023-05-13T09:44:26;12.60;99.90
37938;DHT22;23763;48.130;11.602;2023-05-13T09:46:53;12.70;99.90
37938;DHT22;23763;48.130;11.602;2023-05-13T09:49:25;12.70;99.90
37938;DHT22;23763;48.130;11.602;2023-05-13T09:51:51;12.90;99.90
37938;DHT22;23763;48.130;11.602;2023-05-13T09:54:17;13.00;99.90
37938;DHT22;23763;48.130;11.602;2023-05-13T09:56:42;12.90;99.90
37938;DHT22;23763;48.130;11.602;2023-05-13T09:59:08;12.90;99.90
37938;DHT22;23763;48.130;11.602;2023-05-13T10:01:34;13.10;99.90
37938;DHT22;23763;48.130;11.602;2023-05-13T10:04:01;13.30;99.90
37938;DHT22;23763;48.130;11.602;2023-05-13T10:06:29;13.60;99.90
37938;DHT22;23763;48.130;11.602;2023-05-13T10:08:57;13.40;99.90
37938;DHT22;23763;48.130;11.602;2023-05-13T10:11:24;13.30;99.90
37938;DHT22;23763;48.130;11.602;2023-05-13T10:13:59;13.10;99.90
37938;DHT22;23763;48.130;11.602;2023-05-13T10:16:26;13.10;99.90
37938;DHT22;23763;48.130;11.602;2023-05-13T10:18:54;13.20;99.90
37938;DHT22;23763;48.130;11.602;2023-05-13T10:21:20;13.30;99.90
37938;DHT22;23763;48.130;11.602;2023-05-13T10:23:48;13.30;99.90
37938;DHT22;23763;48.130;11.602;2023-05-13T10:26:16;13.30;99.90
37938;DHT22;23763;48.130;11.602;2023-05-13T10:28:42;13.30;99.90
37938;DHT22;23763;48.130;11.602;2023-05-13T10:31:09;13.50;99.90
37938;DHT22;23763;48.130;11.602;2023-05-13T10:33:35;13.80;99.90
37938;DHT22;23763;48.130;11.602;2023-05-13T10:44:03;14.50;99.90
37938;DHT22;23763;48.130;11.602;2023-05-13T10:46:29;14.60;99.90
37938;DHT22;23763;48.130;11.602;2023-05-13T10:48:58;14.30;99.90
37938;DHT22;23763;48.130;11.602;2023-05-13T10:51:26;14.10;99.90
37938;DHT22;23763;48.130;11.602;2023-05-13T10:53:54;13.90;99.90
37938;DHT22;23763;48.130;11.602;2023-05-13T10:56:25;13.80;99.90
37938;DHT22;23763;48.130;11.602;2023-05-13T10:59:03;13.70;99.90
37938;DHT22;23763;48.130;11.602;2023-05-13T11:01:33;13.80;99.90
37938;DHT22;23763;48.130;11.602;2023-05-13T11:04:00;13.60;99.90
37938;DHT22;23763;48.130;11.602;2023-05-13T11:06:37;13.50;99.90
37938;DHT22;23763;48.130;11.602;2023-05-13T11:09:07;13.40;99.90
37938;DHT22;23763;48.130;11.602;2023-05-13T11:11:34;13.50;99.90
37938;DHT22;23763;48.130;11.602;2023-05-13T11:14:13;13.80;99.90
37938;DHT22;23763;48.130;11.602;2023-05-13T11:19:30;14.10;99.90
37938;DHT22;23763;48.130;11.602;2023-05-13T11:22:22;13.70;99.90
37938;DHT22;23763;48.130;11.602;2023-05-13T11:25:07;13.80;99.90
37938;DHT22;23763;48.130;11.602;2023-05-13T11:27:38;13.80;99.90
37938;DHT22;23763;48.130;11.602;2023-05-13T11:30:25;13.90;99.90
37938;DHT22;23763;48.130;11.602;2023-05-13T11:35:24;13.90;99.90
37938;DHT22;23763;48.130;11.602;2023-05-13T11:37:50;13.80;99.90
37938;DHT22;23763;48.130;11.602;2023-05-13T11:40:23;13.70;99.90
37938;DHT22;23763;48.130;11.602;2023-05-13T11:42:49;13.70;99.90
37938;DHT22;23763;48.130;11.602;2023-05-13T11:45:16;13.70;99.90
37938;DHT22;23763;48.130;11.602;2023-05-13T11:47:42;13.70;99.90
37938;DHT22;23763;48.130;11.602;2023-05-13T11:50:22;13.70;99.90
37938;DHT22;23763;48.130;11.602;2023-05-13T11:52:56;13.80;99.90
37938;DHT22;23763;48.130;11.602;2023-05-13T11:55:32;13.90;99.90
37938;DHT22;23763;48.130;11.602;2023-05-13T11:57:58;14.10;99.90
37938;DHT22;23763;48.130;11.602;2023-05-13T12:00:32;14.40;99.90
37938;DHT22;23763;48.130;11.602;2023-05-13T12:02:58;14.50;99.90
37938;DHT22;23763;48.130;11.602;2023-05-13T12:05:25;14.60;99.90
37938;DHT22;23763;48.130;11.602;2023-05-13T12:07:51;14.70;99.90
37938;DHT22;23763;48.130;11.602;2023-05-13T12:10:21;14.60;99.90
37938;DHT22;23763;48.130;11.602;2023-05-13T12:12:47;14.40;99.90
37938;DHT22;23763;48.130;11.602;2023-05-13T12:15:16;14.40;99.90
37938;DHT22;23763;48.130;11.602;2023-05-13T12:17:42;14.50;99.90
37938;DHT22;23763;48.130;11.602;2023-05-13T12:25:45;14.50;99.90
37938;DHT22;23763;48.130;11.602;2023-05-13T12:28:25;14.40;99.90
37938;DHT22;23763;48.130;11.602;2023-05-13T12:31:00;14.70;99.90
37938;DHT22;23763;48.130;11.602;2023-05-13T12:33:27;15.00;99.90
37938;DHT22;23763;48.130;11.602;2023-05-13T12:38:39;14.80;99.90
37938;DHT22;23763;48.130;11.602;2023-05-13T12:41:11;14.90;99.90
37938;DHT22;23763;48.130;11.602;2023-05-13T12:43:40;14.90;99.90
37938;DHT22;23763;48.130;11.602;2023-05-13T12:46:06;14.60;99.90
37938;DHT22;23763;48.130;11.602;2023-05-13T12:48:34;14.40;99.90
37938;DHT22;23763;48.130;11.602;2023-05-13T12:51:01;14.40;99.90
37938;DHT22;23763;48.130;11.602;2023-05-13T12:53:26;14.30;99.90
37938;DHT22;23763;48.130;11.602;2023-05-13T12:55:52;14.20;99.90
37938;DHT22;23763;48.130;11.602;2023-05-13T12:58:18;14.20;99.90
37938;DHT22;23763;48.130;11.602;2023-05-13T13:00:44;14.10;99.90
37938;DHT22;23763;48.130;11.602;2023-05-13T13:03:10;14.10;99.90
37938;DHT22;23763;48.130;11.602;2023-05-13T13:05:35;14.20;99.90
37938;DHT22;23763;48.130;11.602;2023-05-13T13:08:01;14.20;99.90
37938;DHT22;23763;48.130;11.602;2023-05-13T13:10:29;14.30;99.90
37938;DHT22;23763;48.130;11.602;2023-05-13T13:12:55;14.10;99.90
37938;DHT22;23763;48.130;11.602;2023-05-13T13:15:21;14.00;99.90
37938;DHT22;23763;48.130;11.602;2023-05-13T13:17:46;14.00;99.90
37938;DHT22;23763;48.130;11.602;2023-05-13T13:20:12;14.00;99.90
37938;DHT22;23763;48.130;11.602;2023-05-13T13:22:37;14.00;99.90
37938;DHT22;23763;48.130;11.602;2023-05-13T13:25:06;14.10;99.90
37938;DHT22;23763;48.130;11.602;2023-05-13T13:27:33;14.10;99.90
37938;DHT22;23763;48.130;11.602;2023-05-13T13:29:59;14.30;99.90
37938;DHT22;23763;48.130;11.602;2023-05-13T13:32:25;14.30;99.90
37938;DHT22;23763;48.130;11.602;2023-05-13T13:34:50;14.30;99.90
37938;DHT22;23763;48.130;11.602;2023-05-13T13:37:16;14.30;99.90
37938;DHT22;23763;48.130;11.602;2023-05-13T13:39:42;14.20;99.90
37938;DHT22;23763;48.130;11.602;2023-05-13T13:42:07;14.20;99.90
37938;DHT22;23763;48.130;11.602;2023-05-13T13:44:33;14.40;99.90
37938;DHT22;23763;48.130;11.602;2023-05-13T13:47:01;14.80;99.90
37938;DHT22;23763;48.130;11.602;2023-05-13T13:49:26;14.70;99.90
37938;DHT22;23763;48.130;11.602;2023-05-13T13:51:52;14.90;99.90
37938;DHT22;23763;48.130;11.602;2023-05-13T13:54:17;15.20;99.90
37938;DHT22;23763;48.130;11.602;2023-05-13T13:56:44;15.40;99.90
37938;DHT22;23763;48.130;11.602;2023-05-13T13:59:11;15.50;99.90
37938;DHT22;23763;48.130;11.602;2023-05-13T14:01:37;15.80;99.90
37938;DHT22;23763;48.130;11.602;2023-05-13T14:04:15;15.90;99.90
37938;DHT22;23763;48.130;11.602;2023-05-13T14:06:43;16.00;99.90
37938;DHT22;23763;48.130;11.602;2023-05-13T14:09:09;16.00;99.90
37938;DHT22;23763;48.130;11.602;2023-05-13T14:11:35;16.20;99.90
37938;DHT22;23763;48.130;11.602;2023-05-13T14:14:00;15.80;99.90
37938;DHT22;23763;48.130;11.602;2023-05-13T14:16:26;15.70;99.90
37938;DHT22;23763;48.130;11.602;2023-05-13T14:18:52;15.70;99.90
37938;DHT22;23763;48.130;11.602;2023-05-13T14:21:17;15.80;99.90
37938;DHT22;23763;48.130;11.602;2023-05-13T14:23:43;15.80;99.90
37938;DHT22;23763;48.130;11.602;2023-05-13T14:26:09;15.80;99.90
37938;DHT22;23763;48.130;11.602;2023-05-13T14:28:40;16.00;99.90
37938;DHT22;23763;48.130;11.602;2023-05-13T14:31:05;16.00;99.90
37938;DHT22;23763;48.130;11.602;2023-05-13T14:33:31;15.80;99.90
37938;DHT22;23763;48.130;11.602;2023-05-13T14:35:57;15.90;99.90
37938;DHT22;23763;48.130;11.602;2023-05-13T14:38:22;16.00;99.90
37938;DHT22;23763;48.130;11.602;2023-05-13T14:40:48;16.00;99.90
37938;DHT22;23763;48.130;11.602;2023-05-13T14:43:14;16.10;99.90
37938;DHT22;23763;48.130;11.602;2023-05-13T14:45:39;16.10;99.90
37938;DHT22;23763;48.130;11.602;2023-05-13T14:48:05;16.00;99.90
37938;DHT22;23763;48.130;11.602;2023-05-13T14:50:31;15.90;99.90
37938;DHT22;23763;48.130;11.602;2023-05-13T14:52:56;15.80;99.90
37938;DHT22;23763;48.130;11.602;2023-05-13T14:55:22;15.70;99.90
37938;DHT22;23763;48.130;11.602;2023-05-13T14:57:48;15.50;99.90
37938;DHT22;23763;48.130;11.602;2023-05-13T15:00:14;15.70;99.90
37938;DHT22;23763;48.130;11.602;2023-05-13T15:02:39;15.80;99.90
37938;DHT22;23763;48.130;11.602;2023-05-13T15:05:05;15.90;99.90
37938;DHT22;23763;48.130;11.602;2023-05-13T15:07:31;15.80;99.90
37938;DHT22;23763;48.130;11.602;2023-05-13T15:09:57;15.70;99.90
37938;DHT22;23763;48.130;11.602;2023-05-13T15:12:22;15.70;99.90
37938;DHT22;23763;48.130;11.602;2023-05-13T15:14:51;15.70;99.90
37938;DHT22;23763;48.130;11.602;2023-05-13T15:17:18;15.60;99.90
37938;DHT22;23763;48.130;11.602;2023-05-13T15:19:43;15.50;99.90
37938;DHT22;23763;48.130;11.602;2023-05-13T15:22:09;15.60;99.90
37938;DHT22;23763;48.130;11.602;2023-05-13T15:24:35;15.60;99.90
37938;DHT22;23763;48.130;11.602;2023-05-13T15:27:02;15.60;99.90
37938;DHT22;23763;48.130;11.602;2023-05-13T15:29:28;15.60;99.90
37938;DHT22;23763;48.130;11.602;2023-05-13T15:31:53;15.60;99.90
37938;DHT22;23763;48.130;11.602;2023-05-13T15:34:19;15.60;99.90
37938;DHT22;23763;48.130;11.602;2023-05-13T15:36:45;15.60;99.90
37938;DHT22;23763;48.130;11.602;2023-05-13T15:39:11;15.50;99.90
37938;DHT22;23763;48.130;11.602;2023-05-13T15:41:36;15.50;99.90